sensor_id;sensor_type;location;lat;lon;timestamp;pressure;altitude;pressure_sealevel;temperature;humidity
68855;BME280;69984;-43.570;172.580;2023-08-08T00:01:36;101489.97;;;11.56;50.33
68855;BME280;69984;-43.570;172.580;2023-08-08T00:04:03;101483.66;;;11.98;51.39
68855;BME280;69984;-43.570;172.580;2023-08-08T00:06:30;101480.28;;;11.86;50.40
68855;BME280;69984;-43.570;172.580;2023-08-08T00:08:58;101485.34;;;12.18;51.04
68855;BME280;69984;-43.570;172.580;2023-08-08T00:11:25;101472.34;;;11.67;50.46
68855;BME280;69984;-43.570;172.580;2023-08-08T00:13:52;101470.34;;;11.50;50.64
68855;BME280;69984;-43.570;172.580;2023-08-08T00:16:19;101471.88;;;11.52;49.69
68855;BME280;69984;-43.570;172.580;2023-08-08T00:18:46;101462.63;;;11.58;48.29
68855;BME280;69984;-43.570;172.580;2023-08-08T00:21:16;101467.50;;;11.32;47.75
68855;BME280;69984;-43.570;172.580;2023-08-08T00:23:43;101465.47;;;11.45;47.41
68855;BME280;69984;-43.570;172.580;2023-08-08T00:26:10;101462.97;;;11.14;49.28
68855;BME280;69984;-43.570;172.580;2023-08-08T00:28:37;101449.63;;;11.57;49.27
68855;BME280;69984;-43.570;172.580;2023-08-08T00:31:04;101445.75;;;12.00;47.13
68855;BME280;69984;-43.570;172.580;2023-08-08T00:33:31;101450.09;;;12.21;47.44
68855;BME280;69984;-43.570;172.580;2023-08-08T00:35:58;101447.13;;;12.05;47.53
68855;BME280;69984;-43.570;172.580;2023-08-08T00:38:25;101429.75;;;12.23;47.80
68855;BME280;69984;-43.570;172.580;2023-08-08T00:40:52;101428.50;;;12.17;46.00
68855;BME280;69984;-43.570;172.580;2023-08-08T00:43:19;101425.16;;;12.06;47.49
68855;BME280;69984;-43.570;172.580;2023-08-08T00:45:46;101419.44;;;12.87;46.63
68855;BME280;69984;-43.570;172.580;2023-08-08T00:48:13;101420.47;;;12.47;45.63
68855;BME280;69984;-43.570;172.580;2023-08-08T00:50:43;101411.53;;;12.87;45.62
68855;BME280;69984;-43.570;172.580;2023-08-08T00:53:12;101405.44;;;12.86;45.49
68855;BME280;69984;-43.570;172.580;2023-08-08T00:55:40;101414.31;;;12.76;44.52
68855;BME280;69984;-43.570;172.580;2023-08-08T00:58:07;101410.34;;;12.43;44.81
68855;BME280;69984;-43.570;172.580;2023-08-08T01:00:34;101404.91;;;13.29;43.70
68855;BME280;69984;-43.570;172.580;2023-08-08T01:03:01;101413.66;;;13.20;44.46
68855;BME280;69984;-43.570;172.580;2023-08-08T01:05:35;101407.84;;;13.26;42.82
68855;BME280;69984;-43.570;172.580;2023-08-08T01:08:06;101400.31;;;12.85;42.52
68855;BME280;69984;-43.570;172.580;2023-08-08T01:10:37;101405.25;;;13.71;41.75
68855;BME280;69984;-43.570;172.580;2023-08-08T01:13:21;101395.75;;;13.33;42.39
68855;BME280;69984;-43.570;172.580;2023-08-08T01:15:49;101392.22;;;13.15;40.45
68855;BME280;69984;-43.570;172.580;2023-08-08T01:18:18;101383.72;;;13.48;40.56
68855;BME280;69984;-43.570;172.580;2023-08-08T01:20:46;101383.03;;;13.91;40.41
68855;BME280;69984;-43.570;172.580;2023-08-08T01:25:54;101369.53;;;12.95;41.77
68855;BME280;69984;-43.570;172.580;2023-08-08T01:28:25;101372.72;;;13.35;41.69
68855;BME280;69984;-43.570;172.580;2023-08-08T01:30:52;101366.09;;;13.94;38.96
68855;BME280;69984;-43.570;172.580;2023-08-08T01:33:20;101365.44;;;13.92;37.54
68855;BME280;69984;-43.570;172.580;2023-08-08T01:35:56;101362.63;;;13.93;37.72
68855;BME280;69984;-43.570;172.580;2023-08-08T01:38:44;101364.06;;;14.41;36.66
68855;BME280;69984;-43.570;172.580;2023-08-08T01:41:13;101351.03;;;14.99;36.37
68855;BME280;69984;-43.570;172.580;2023-08-08T01:43:41;101348.16;;;14.15;38.22
68855;BME280;69984;-43.570;172.580;2023-08-08T01:46:08;101351.34;;;14.62;36.73
68855;BME280;69984;-43.570;172.580;2023-08-08T01:48:36;101336.16;;;14.90;36.36
68855;BME280;69984;-43.570;172.580;2023-08-08T01:51:03;101344.09;;;15.32;35.72
68855;BME280;69984;-43.570;172.580;2023-08-08T01:53:30;101334.34;;;15.82;36.07
68855;BME280;69984;-43.570;172.580;2023-08-08T01:55:57;101330.66;;;15.59;35.93
68855;BME280;69984;-43.570;172.580;2023-08-08T01:58:24;101325.97;;;15.45;35.23
68855;BME280;69984;-43.570;172.580;2023-08-08T02:00:51;101331.81;;;15.73;35.41
68855;BME280;69984;-43.570;172.580;2023-08-08T02:03:19;101321.41;;;15.13;36.13
68855;BME280;69984;-43.570;172.580;2023-08-08T02:05:46;101322.88;;;15.08;36.75
68855;BME280;69984;-43.570;172.580;2023-08-08T02:08:13;101311.97;;;14.69;37.46
68855;BME280;69984;-43.570;172.580;2023-08-08T02:10:40;101313.03;;;14.32;38.20
68855;BME280;69984;-43.570;172.580;2023-08-08T02:13:07;101317.56;;;14.99;38.09
68855;BME280;69984;-43.570;172.580;2023-08-08T02:15:34;101310.03;;;15.21;36.51
68855;BME280;69984;-43.570;172.580;2023-08-08T02:18:01;101314.13;;;15.57;36.45
68855;BME280;69984;-43.570;172.580;2023-08-08T02:20:30;101310.06;;;15.29;36.72
68855;BME280;69984;-43.570;172.580;2023-08-08T02:22:57;101307.38;;;14.45;38.36
68855;BME280;69984;-43.570;172.580;2023-08-08T02:25:24;101307.44;;;15.29;37.90
68855;BME280;69984;-43.570;172.580;2023-08-08T02:27:51;101308.72;;;15.99;35.66
68855;BME280;69984;-43.570;172.580;2023-08-08T02:30:18;101311.31;;;15.59;35.06
68855;BME280;69984;-43.570;172.580;2023-08-08T02:32:45;101310.03;;;15.21;36.26
68855;BME280;69984;-43.570;172.580;2023-08-08T02:35:12;101308.88;;;14.47;37.07
68855;BME280;69984;-43.570;172.580;2023-08-08T02:37:39;101307.34;;;13.48;40.94
68855;BME280;69984;-43.570;172.580;2023-08-08T02:40:07;101304.78;;;14.10;39.37
68855;BME280;69984;-43.570;172.580;2023-08-08T02:42:35;101302.69;;;13.95;39.46
68855;BME280;69984;-43.570;172.580;2023-08-08T02:45:03;101306.84;;;13.45;40.82
68855;BME280;69984;-43.570;172.580;2023-08-08T02:47:30;101305.97;;;12.99;42.16
68855;BME280;69984;-43.570;172.580;2023-08-08T02:49:57;101304.72;;;13.48;41.94
68855;BME280;69984;-43.570;172.580;2023-08-08T02:52:24;101303.06;;;13.83;41.06
68855;BME280;69984;-43.570;172.580;2023-08-08T02:54:51;101303.06;;;14.00;40.06
68855;BME280;69984;-43.570;172.580;2023-08-08T02:57:18;101315.28;;;13.66;40.12
68855;BME280;69984;-43.570;172.580;2023-08-08T02:59:45;101310.75;;;13.14;41.59
68855;BME280;69984;-43.570;172.580;2023-08-08T03:02:12;101313.38;;;12.86;42.12
68855;BME280;69984;-43.570;172.580;2023-08-08T03:04:39;101310.00;;;12.94;41.27
68855;BME280;69984;-43.570;172.580;2023-08-08T03:07:06;101309.09;;;13.13;42.06
68855;BME280;69984;-43.570;172.580;2023-08-08T03:09:34;101302.97;;;14.28;39.90
68855;BME280;69984;-43.570;172.580;2023-08-08T03:12:01;101300.25;;;14.20;39.50
68855;BME280;69984;-43.570;172.580;2023-08-08T03:14:28;101300.38;;;13.57;39.52
68855;BME280;69984;-43.570;172.580;2023-08-08T03:16:55;101304.41;;;14.05;39.20
68855;BME280;69984;-43.570;172.580;2023-08-08T03:19:22;101308.75;;;14.83;36.76
68855;BME280;69984;-43.570;172.580;2023-08-08T03:21:49;101302.63;;;14.82;37.14
68855;BME280;69984;-43.570;172.580;2023-08-08T03:24:17;101312.47;;;15.06;36.38
68855;BME280;69984;-43.570;172.580;2023-08-08T03:26:44;101309.38;;;13.55;38.14
68855;BME280;69984;-43.570;172.580;2023-08-08T03:29:11;101309.56;;;13.88;38.02
68855;BME280;69984;-43.570;172.580;2023-08-08T03:31:39;101298.84;;;14.08;37.21
68855;BME280;69984;-43.570;172.580;2023-08-08T03:34:06;101306.59;;;14.09;37.73
68855;BME280;69984;-43.570;172.580;2023-08-08T03:36:33;101300.91;;;14.65;37.22
68855;BME280;69984;-43.570;172.580;2023-08-08T03:39:00;101305.91;;;15.18;36.42
68855;BME280;69984;-43.570;172.580;2023-08-08T03:41:27;101301.50;;;15.27;36.59
68855;BME280;69984;-43.570;172.580;2023-08-08T03:43:54;101303.63;;;15.23;36.15
68855;BME280;69984;-43.570;172.580;2023-08-08T03:46:22;101299.56;;;14.95;37.37
68855;BME280;69984;-43.570;172.580;2023-08-08T03:48:49;101296.16;;;15.61;36.33
68855;BME280;69984;-43.570;172.580;2023-08-08T03:51:16;101306.53;;;15.04;37.72
68855;BME280;69984;-43.570;172.580;2023-08-08T03:53:43;101309.63;;;14.91;36.61
68855;BME280;69984;-43.570;172.580;2023-08-08T03:56:10;101298.72;;;15.36;36.04
68855;BME280;69984;-43.570;172.580;2023-08-08T03:58:38;101294.59;;;15.34;36.81
68855;BME280;69984;-43.570;172.580;2023-08-08T04:01:05;101300.03;;;15.40;36.66
68855;BME280;69984;-43.570;172.580;2023-08-08T04:03:33;101296.84;;;15.13;37.27
68855;BME280;69984;-43.570;172.580;2023-08-08T04:06:00;101293.38;;;15.20;37.34
68855;BME280;69984;-43.570;172.580;2023-08-08T04:08:27;101295.34;;;14.76;37.97
68855;BME280;69984;-43.570;172.580;2023-08-08T04:10:54;101294.00;;;14.38;39.04
68855;BME280;69984;-43.570;172.580;2023-08-08T04:13:22;101295.03;;;13.84;40.60
68855;BME280;69984;-43.570;172.580;2023-08-08T04:15:49;101297.56;;;14.55;40.65
68855;BME280;69984;-43.570;172.580;2023-08-08T04:18:18;101296.47;;;14.40;39.46
68855;BME280;69984;-43.570;172.580;2023-08-08T04:20:48;101295.16;;;13.47;41.30
68855;BME280;69984;-43.570;172.580;2023-08-08T04:23:15;101291.47;;;13.23;42.21
68855;BME280;69984;-43.570;172.580;2023-08-08T04:25:42;101298.88;;;12.73;43.90
68855;BME280;69984;-43.570;172.580;2023-08-08T04:28:09;101288.38;;;12.73;44.37
68855;BME280;69984;-43.570;172.580;2023-08-08T04:30:36;101305.41;;;11.93;46.61
68855;BME280;69984;-43.570;172.580;2023-08-08T04:33:04;101308.03;;;12.03;46.91
68855;BME280;69984;-43.570;172.580;2023-08-08T04:35:31;101302.09;;;12.01;46.89
68855;BME280;69984;-43.570;172.580;2023-08-08T04:37:58;101311.78;;;12.10;46.26
68855;BME280;69984;-43.570;172.580;2023-08-08T04:40:25;101320.28;;;11.45;46.40
68855;BME280;69984;-43.570;172.580;2023-08-08T04:42:52;101307.59;;;11.69;46.59
68855;BME280;69984;-43.570;172.580;2023-08-08T04:45:19;101311.09;;;11.89;46.40
68855;BME280;69984;-43.570;172.580;2023-08-08T04:47:47;101306.50;;;11.72;45.97
68855;BME280;69984;-43.570;172.580;2023-08-08T04:50:14;101316.00;;;11.53;45.31
68855;BME280;69984;-43.570;172.580;2023-08-08T04:52:42;101313.22;;;11.45;47.54
68855;BME280;69984;-43.570;172.580;2023-08-08T04:55:09;101304.41;;;11.56;47.65
68855;BME280;69984;-43.570;172.580;2023-08-08T04:57:36;101309.00;;;11.83;47.79
68855;BME280;69984;-43.570;172.580;2023-08-08T05:00:03;101310.94;;;11.71;49.79
68855;BME280;69984;-43.570;172.580;2023-08-08T05:02:34;101324.28;;;11.59;50.06
68855;BME280;69984;-43.570;172.580;2023-08-08T05:05:02;101325.91;;;11.40;50.51
68855;BME280;69984;-43.570;172.580;2023-08-08T05:07:29;101324.75;;;11.83;50.10
68855;BME280;69984;-43.570;172.580;2023-08-08T05:09:56;101324.28;;;11.68;49.96
68855;BME280;69984;-43.570;172.580;2023-08-08T05:12:23;101331.50;;;11.66;49.49
68855;BME280;69984;-43.570;172.580;2023-08-08T05:14:50;101328.25;;;11.34;49.79
68855;BME280;69984;-43.570;172.580;2023-08-08T05:17:18;101332.84;;;11.41;49.90
68855;BME280;69984;-43.570;172.580;2023-08-08T05:19:45;101324.38;;;11.28;50.14
68855;BME280;69984;-43.570;172.580;2023-08-08T05:22:12;101339.66;;;11.14;50.75
68855;BME280;69984;-43.570;172.580;2023-08-08T05:24:39;101334.41;;;11.04;50.45
68855;BME280;69984;-43.570;172.580;2023-08-08T05:27:06;101335.75;;;10.98;50.09
68855;BME280;69984;-43.570;172.580;2023-08-08T05:29:33;101325.03;;;11.11;49.65
68855;BME280;69984;-43.570;172.580;2023-08-08T05:32:05;101339.09;;;11.00;49.34
68855;BME280;69984;-43.570;172.580;2023-08-08T05:34:33;101342.41;;;11.12;49.11
68855;BME280;69984;-43.570;172.580;2023-08-08T05:37:01;101340.91;;;11.10;48.76
68855;BME280;69984;-43.570;172.580;2023-08-08T05:39:29;101337.84;;;11.05;49.62
68855;BME280;69984;-43.570;172.580;2023-08-08T05:41:57;101343.84;;;10.86;50.19
68855;BME280;69984;-43.570;172.580;2023-08-08T05:44:25;101337.56;;;10.47;50.98
68855;BME280;69984;-43.570;172.580;2023-08-08T05:46:52;101346.91;;;10.19;51.96
68855;BME280;69984;-43.570;172.580;2023-08-08T05:49:19;101345.16;;;10.29;51.66
68855;BME280;69984;-43.570;172.580;2023-08-08T05:51:46;101338.41;;;9.95;52.44
68855;BME280;69984;-43.570;172.580;2023-08-08T05:54:13;101353.06;;;9.86;53.29
68855;BME280;69984;-43.570;172.580;2023-08-08T05:56:41;101356.50;;;9.44;54.58
68855;BME280;69984;-43.570;172.580;2023-08-08T05:59:08;101355.84;;;9.20;56.33
68855;BME280;69984;-43.570;172.580;2023-08-08T06:01:35;101355.19;;;9.92;53.46
68855;BME280;69984;-43.570;172.580;2023-08-08T06:04:03;101356.41;;;9.88;54.23
68855;BME280;69984;-43.570;172.580;2023-08-08T06:06:30;101359.16;;;10.19;53.00
68855;BME280;69984;-43.570;172.580;2023-08-08T06:08:57;101364.25;;;9.57;54.99
68855;BME280;69984;-43.570;172.580;2023-08-08T06:11:24;101370.34;;;9.24;56.12
68855;BME280;69984;-43.570;172.580;2023-08-08T06:13:52;101366.19;;;9.75;54.94
68855;BME280;69984;-43.570;172.580;2023-08-08T06:16:21;101365.28;;;9.65;55.24
68855;BME280;69984;-43.570;172.580;2023-08-08T06:18:48;101364.09;;;10.01;53.32
68855;BME280;69984;-43.570;172.580;2023-08-08T06:21:15;101368.19;;;9.83;54.23
68855;BME280;69984;-43.570;172.580;2023-08-08T06:23:42;101371.75;;;9.82;54.03
68855;BME280;69984;-43.570;172.580;2023-08-08T06:26:10;101367.22;;;9.52;54.61
68855;BME280;69984;-43.570;172.580;2023-08-08T06:28:37;101371.19;;;9.24;55.32
68855;BME280;69984;-43.570;172.580;2023-08-08T06:31:04;101366.88;;;9.34;56.32
68855;BME280;69984;-43.570;172.580;2023-08-08T06:33:31;101370.47;;;9.00;57.18
68855;BME280;69984;-43.570;172.580;2023-08-08T06:35:58;101368.81;;;9.21;57.17
68855;BME280;69984;-43.570;172.580;2023-08-08T06:38:25;101369.03;;;8.96;57.76
68855;BME280;69984;-43.570;172.580;2023-08-08T06:40:52;101368.56;;;8.91;57.17
68855;BME280;69984;-43.570;172.580;2023-08-08T06:43:19;101375.44;;;8.81;57.45
68855;BME280;69984;-43.570;172.580;2023-08-08T06:45:47;101375.06;;;8.74;57.65
68855;BME280;69984;-43.570;172.580;2023-08-08T06:48:14;101375.66;;;8.67;58.33
68855;BME280;69984;-43.570;172.580;2023-08-08T06:50:41;101382.78;;;8.65;58.66
68855;BME280;69984;-43.570;172.580;2023-08-08T06:53:08;101389.31;;;8.70;58.30
68855;BME280;69984;-43.570;172.580;2023-08-08T06:55:35;101391.75;;;8.95;58.39
68855;BME280;69984;-43.570;172.580;2023-08-08T06:58:02;101392.88;;;8.69;58.77
68855;BME280;69984;-43.570;172.580;2023-08-08T07:00:29;101389.41;;;8.46;59.69
68855;BME280;69984;-43.570;172.580;2023-08-08T07:02:56;101402.56;;;8.45;59.08
68855;BME280;69984;-43.570;172.580;2023-08-08T07:05:23;101401.25;;;8.39;60.14
68855;BME280;69984;-43.570;172.580;2023-08-08T07:07:52;101419.25;;;7.84;61.54
68855;BME280;69984;-43.570;172.580;2023-08-08T07:10:19;101417.63;;;8.18;60.50
68855;BME280;69984;-43.570;172.580;2023-08-08T07:12:46;101413.84;;;8.22;60.89
68855;BME280;69984;-43.570;172.580;2023-08-08T07:15:15;101403.69;;;8.65;58.77
68855;BME280;69984;-43.570;172.580;2023-08-08T07:17:42;101401.31;;;8.73;58.40
68855;BME280;69984;-43.570;172.580;2023-08-08T07:20:09;101400.63;;;8.82;57.58
68855;BME280;69984;-43.570;172.580;2023-08-08T07:22:40;101399.56;;;8.84;58.08
68855;BME280;69984;-43.570;172.580;2023-08-08T07:25:07;101405.72;;;8.61;58.60
68855;BME280;69984;-43.570;172.580;2023-08-08T07:27:34;101404.88;;;8.61;58.32
68855;BME280;69984;-43.570;172.580;2023-08-08T07:30:01;101405.03;;;7.88;59.85
68855;BME280;69984;-43.570;172.580;2023-08-08T07:32:29;101396.84;;;7.69;61.06
68855;BME280;69984;-43.570;172.580;2023-08-08T07:34:56;101395.94;;;7.57;61.22
68855;BME280;69984;-43.570;172.580;2023-08-08T07:37:23;101406.22;;;7.71;60.74
68855;BME280;69984;-43.570;172.580;2023-08-08T07:39:53;101394.53;;;7.77;60.32
68855;BME280;69984;-43.570;172.580;2023-08-08T07:42:20;101398.84;;;7.65;61.05
68855;BME280;69984;-43.570;172.580;2023-08-08T07:44:47;101395.44;;;7.52;61.13
68855;BME280;69984;-43.570;172.580;2023-08-08T07:47:14;101409.72;;;7.59;60.67
68855;BME280;69984;-43.570;172.580;2023-08-08T07:49:41;101408.88;;;7.59;61.42
68855;BME280;69984;-43.570;172.580;2023-08-08T07:52:08;101397.25;;;7.39;61.76
68855;BME280;69984;-43.570;172.580;2023-08-08T07:54:35;101403.28;;;7.52;61.50
68855;BME280;69984;-43.570;172.580;2023-08-08T07:57:02;101398.06;;;7.39;62.02
68855;BME280;69984;-43.570;172.580;2023-08-08T07:59:30;101401.22;;;7.32;61.92
68855;BME280;69984;-43.570;172.580;2023-08-08T08:01:57;101407.41;;;7.31;62.35
68855;BME280;69984;-43.570;172.580;2023-08-08T08:04:24;101400.09;;;7.23;62.60
68855;BME280;69984;-43.570;172.580;2023-08-08T08:06:51;101419.50;;;7.19;62.18
68855;BME280;69984;-43.570;172.580;2023-08-08T08:09:18;101411.56;;;7.70;60.48
68855;BME280;69984;-43.570;172.580;2023-08-08T08:11:45;101411.13;;;7.39;61.68
68855;BME280;69984;-43.570;172.580;2023-08-08T08:14:12;101419.06;;;7.25;61.97
68855;BME280;69984;-43.570;172.580;2023-08-08T08:16:39;101424.06;;;7.41;61.35
68855;BME280;69984;-43.570;172.580;2023-08-08T08:19:07;101423.16;;;7.17;63.39
68855;BME280;69984;-43.570;172.580;2023-08-08T08:21:34;101422.56;;;7.49;62.30
68855;BME280;69984;-43.570;172.580;2023-08-08T08:24:01;101419.97;;;7.49;61.64
68855;BME280;69984;-43.570;172.580;2023-08-08T08:26:28;101418.66;;;7.31;63.16
68855;BME280;69984;-43.570;172.580;2023-08-08T08:28:55;101414.47;;;7.41;62.54
68855;BME280;69984;-43.570;172.580;2023-08-08T08:31:22;101414.72;;;7.13;62.66
68855;BME280;69984;-43.570;172.580;2023-08-08T08:33:49;101404.78;;;7.18;63.26
68855;BME280;69984;-43.570;172.580;2023-08-08T08:36:17;101399.75;;;7.40;63.16
68855;BME280;69984;-43.570;172.580;2023-08-08T08:38:44;101396.69;;;6.97;63.46
68855;BME280;69984;-43.570;172.580;2023-08-08T08:41:15;101403.66;;;6.97;63.92
68855;BME280;69984;-43.570;172.580;2023-08-08T08:43:44;101408.00;;;7.22;63.60
68855;BME280;69984;-43.570;172.580;2023-08-08T08:46:11;101416.53;;;7.36;63.54
68855;BME280;69984;-43.570;172.580;2023-08-08T08:48:42;101413.34;;;7.08;64.89
68855;BME280;69984;-43.570;172.580;2023-08-08T08:51:10;101418.91;;;7.03;65.08
68855;BME280;69984;-43.570;172.580;2023-08-08T08:53:37;101414.78;;;6.48;66.27
68855;BME280;69984;-43.570;172.580;2023-08-08T08:56:05;101425.75;;;6.66;66.35
68855;BME280;69984;-43.570;172.580;2023-08-08T08:58:32;101416.69;;;6.84;66.90
68855;BME280;69984;-43.570;172.580;2023-08-08T09:01:00;101416.69;;;7.10;66.68
68855;BME280;69984;-43.570;172.580;2023-08-08T09:03:28;101423.44;;;7.25;66.84
68855;BME280;69984;-43.570;172.580;2023-08-08T09:05:55;101419.56;;;7.43;65.81
68855;BME280;69984;-43.570;172.580;2023-08-08T09:08:22;101422.78;;;7.46;64.83
68855;BME280;69984;-43.570;172.580;2023-08-08T09:10:49;101418.38;;;7.11;64.58
68855;BME280;69984;-43.570;172.580;2023-08-08T09:13:17;101416.19;;;7.17;64.23
68855;BME280;69984;-43.570;172.580;2023-08-08T09:15:47;101407.31;;;7.07;64.55
68855;BME280;69984;-43.570;172.580;2023-08-08T09:18:15;101420.88;;;6.22;67.75
68855;BME280;69984;-43.570;172.580;2023-08-08T09:20:47;101421.16;;;6.70;66.68
68855;BME280;69984;-43.570;172.580;2023-08-08T09:23:15;101413.25;;;5.92;69.13
68855;BME280;69984;-43.570;172.580;2023-08-08T09:25:42;101412.63;;;6.16;69.67
68855;BME280;69984;-43.570;172.580;2023-08-08T09:28:09;101413.47;;;6.68;68.14
68855;BME280;69984;-43.570;172.580;2023-08-08T09:30:37;101410.03;;;6.68;67.18
68855;BME280;69984;-43.570;172.580;2023-08-08T09:33:04;101413.03;;;6.74;66.63
68855;BME280;69984;-43.570;172.580;2023-08-08T09:35:31;101404.09;;;6.78;65.91
68855;BME280;69984;-43.570;172.580;2023-08-08T09:38:01;101409.50;;;7.00;64.54
68855;BME280;69984;-43.570;172.580;2023-08-08T09:40:28;101408.34;;;7.04;65.19
68855;BME280;69984;-43.570;172.580;2023-08-08T09:42:57;101404.91;;;7.04;64.82
68855;BME280;69984;-43.570;172.580;2023-08-08T09:45:34;101408.69;;;7.00;65.34
68855;BME280;69984;-43.570;172.580;2023-08-08T09:48:02;101409.47;;;7.26;64.69
68855;BME280;69984;-43.570;172.580;2023-08-08T09:50:29;101407.00;;;6.86;65.98
68855;BME280;69984;-43.570;172.580;2023-08-08T09:52:56;101400.22;;;7.09;65.75
68855;BME280;69984;-43.570;172.580;2023-08-08T09:55:24;101400.00;;;7.12;65.39
68855;BME280;69984;-43.570;172.580;2023-08-08T09:57:52;101399.81;;;7.02;64.80
68855;BME280;69984;-43.570;172.580;2023-08-08T10:00:20;101386.34;;;7.21;63.28
68855;BME280;69984;-43.570;172.580;2023-08-08T10:02:47;101392.81;;;6.90;64.77
68855;BME280;69984;-43.570;172.580;2023-08-08T10:05:15;101392.31;;;6.60;66.31
68855;BME280;69984;-43.570;172.580;2023-08-08T10:07:42;101391.56;;;6.71;66.22
68855;BME280;69984;-43.570;172.580;2023-08-08T10:10:10;101394.56;;;6.39;67.07
68855;BME280;69984;-43.570;172.580;2023-08-08T10:12:41;101385.94;;;6.77;66.50
68855;BME280;69984;-43.570;172.580;2023-08-08T10:15:10;101390.53;;;6.73;66.04
68855;BME280;69984;-43.570;172.580;2023-08-08T10:17:38;101387.00;;;6.99;64.83
68855;BME280;69984;-43.570;172.580;2023-08-08T10:20:08;101384.81;;;6.81;64.69
68855;BME280;69984;-43.570;172.580;2023-08-08T10:22:45;101389.25;;;7.04;64.55
68855;BME280;69984;-43.570;172.580;2023-08-08T10:25:26;101387.19;;;7.09;64.34
68855;BME280;69984;-43.570;172.580;2023-08-08T10:28:11;101380.91;;;7.12;64.56
68855;BME280;69984;-43.570;172.580;2023-08-08T10:30:45;101387.94;;;6.98;64.87
68855;BME280;69984;-43.570;172.580;2023-08-08T10:33:42;101386.53;;;6.42;66.28
68855;BME280;69984;-43.570;172.580;2023-08-08T10:36:10;101384.59;;;6.71;66.04
68855;BME280;69984;-43.570;172.580;2023-08-08T10:38:44;101386.56;;;6.68;66.17
68855;BME280;69984;-43.570;172.580;2023-08-08T10:41:19;101379.69;;;6.54;66.92
68855;BME280;69984;-43.570;172.580;2023-08-08T10:43:55;101388.44;;;6.53;66.98
68855;BME280;69984;-43.570;172.580;2023-08-08T10:46:31;101380.94;;;6.74;65.99
68855;BME280;69984;-43.570;172.580;2023-08-08T10:49:01;101379.16;;;6.87;65.35
68855;BME280;69984;-43.570;172.580;2023-08-08T10:51:39;101383.03;;;7.07;63.75
68855;BME280;69984;-43.570;172.580;2023-08-08T10:54:34;101382.38;;;6.65;65.26
68855;BME280;69984;-43.570;172.580;2023-08-08T10:57:02;101372.00;;;6.78;65.01
68855;BME280;69984;-43.570;172.580;2023-08-08T10:59:38;101382.09;;;6.82;66.59
68855;BME280;69984;-43.570;172.580;2023-08-08T11:02:06;101374.25;;;6.44;66.81
68855;BME280;69984;-43.570;172.580;2023-08-08T11:04:33;101373.22;;;6.47;66.83
68855;BME280;69984;-43.570;172.580;2023-08-08T11:07:02;101380.31;;;6.06;66.23
68855;BME280;69984;-43.570;172.580;2023-08-08T11:09:29;101380.00;;;6.10;66.98
68855;BME280;69984;-43.570;172.580;2023-08-08T11:11:56;101372.00;;;6.13;67.01
68855;BME280;69984;-43.570;172.580;2023-08-08T11:14:23;101371.00;;;6.16;66.93
68855;BME280;69984;-43.570;172.580;2023-08-08T11:16:51;101369.44;;;6.26;66.38
68855;BME280;69984;-43.570;172.580;2023-08-08T11:19:19;101376.56;;;6.36;65.24
68855;BME280;69984;-43.570;172.580;2023-08-08T11:21:48;101376.91;;;6.05;66.25
68855;BME280;69984;-43.570;172.580;2023-08-08T11:24:16;101377.16;;;5.19;68.74
68855;BME280;69984;-43.570;172.580;2023-08-08T11:26:44;101371.31;;;5.29;70.09
68855;BME280;69984;-43.570;172.580;2023-08-08T11:29:13;101372.72;;;5.62;69.21
68855;BME280;69984;-43.570;172.580;2023-08-08T11:31:41;101377.44;;;5.69;68.46
68855;BME280;69984;-43.570;172.580;2023-08-08T11:34:08;101374.06;;;5.81;67.87
68855;BME280;69984;-43.570;172.580;2023-08-08T11:36:38;101369.31;;;5.88;67.09
68855;BME280;69984;-43.570;172.580;2023-08-08T11:39:06;101363.31;;;5.87;66.80
68855;BME280;69984;-43.570;172.580;2023-08-08T11:41:37;101372.56;;;5.77;67.18
68855;BME280;69984;-43.570;172.580;2023-08-08T11:44:07;101366.22;;;5.69;66.94
68855;BME280;69984;-43.570;172.580;2023-08-08T11:46:34;101375.56;;;5.71;66.88
68855;BME280;69984;-43.570;172.580;2023-08-08T11:49:05;101377.13;;;5.74;66.90
68855;BME280;69984;-43.570;172.580;2023-08-08T11:51:35;101370.78;;;5.92;66.15
68855;BME280;69984;-43.570;172.580;2023-08-08T11:54:04;101372.47;;;5.93;65.78
68855;BME280;69984;-43.570;172.580;2023-08-08T11:56:33;101376.56;;;5.83;66.12
68855;BME280;69984;-43.570;172.580;2023-08-08T11:59:01;101371.81;;;6.16;64.79
68855;BME280;69984;-43.570;172.580;2023-08-08T12:01:30;101367.91;;;5.96;64.73
68855;BME280;69984;-43.570;172.580;2023-08-08T12:03:57;101365.44;;;6.08;65.09
68855;BME280;69984;-43.570;172.580;2023-08-08T12:06:29;101375.19;;;5.77;66.41
68855;BME280;69984;-43.570;172.580;2023-08-08T12:08:56;101376.44;;;5.98;65.79
68855;BME280;69984;-43.570;172.580;2023-08-08T12:11:23;101377.13;;;5.74;66.16
68855;BME280;69984;-43.570;172.580;2023-08-08T12:13:50;101377.69;;;5.93;66.14
68855;BME280;69984;-43.570;172.580;2023-08-08T12:16:17;101365.16;;;5.71;66.01
68855;BME280;69984;-43.570;172.580;2023-08-08T12:18:44;101371.66;;;5.78;65.35
68855;BME280;69984;-43.570;172.580;2023-08-08T12:21:11;101370.44;;;6.11;65.21
68855;BME280;69984;-43.570;172.580;2023-08-08T12:23:39;101372.66;;;5.49;66.69
68855;BME280;69984;-43.570;172.580;2023-08-08T12:26:06;101374.38;;;5.77;66.15
68855;BME280;69984;-43.570;172.580;2023-08-08T12:28:37;101377.53;;;5.68;65.86
68855;BME280;69984;-43.570;172.580;2023-08-08T12:31:04;101375.00;;;5.39;65.99
68855;BME280;69984;-43.570;172.580;2023-08-08T12:33:31;101373.94;;;5.56;65.91